Time;durP1;ratioP1;P1;durP2;ratioP2;P2;SDS_P1;SDS_P2;PMS_P1;PMS_P2;Temp;Humidity;BMP_temperature;BMP_pressure;BME280_temperature;BME280_humidity;BME280_pressure;Samples;Min_cycle;Max_cycle;Signal;HPM_P1;HPM_P2
2023/10/27 00:01:06;;;;;;;3.40;1.33;;;13.60;99.90;;;;;;4961723;28;20034;-20
2023/10/27 00:03:32;;;;;;;2.87;1.40;;;14.60;99.90;;;;;;4961688;28;20039;-20
2023/10/27 00:05:58;;;;;;;2.85;1.55;;;13.60;99.90;;;;;;4961688;28;20408;-20
2023/10/27 00:08:24;;;;;;;3.13;1.40;;;13.60;99.90;;;;;;4957021;28;20152;-20
2023/10/27 00:10:50;;;;;;;4.47;1.50;;;13.60;99.90;;;;;;4972462;28;20297;-20
2023/10/27 00:13:15;;;;;;;3.15;1.40;;;13.60;99.90;;;;;;4956975;28;20683;-20
2023/10/27 00:15:41;;;;;;;3.77;1.40;;;13.60;99.90;;;;;;4953479;28;20104;-20
2023/10/27 00:18:07;;;;;;;5.03;1.38;;;13.60;99.90;;;;;;4963865;28;20392;-20
2023/10/27 00:20:33;;;;;;;4.20;1.40;;;13.60;99.90;;;;;;4972106;28;20076;-20
2023/10/27 00:22:58;;;;;;;1.73;1.10;;;13.60;99.90;;;;;;4976784;28;20604;-20
2023/10/27 00:25:25;;;;;;;3.38;1.40;;;13.60;99.90;;;;;;4960315;28;20480;-20
2023/10/27 00:27:51;;;;;;;2.63;1.35;;;13.60;99.90;;;;;;4965449;28;20034;-20
2023/10/27 00:30:17;;;;;;;2.77;1.50;;;13.60;99.90;;;;;;4943368;28;20033;-20
2023/10/27 00:32:43;;;;;;;2.58;1.40;;;13.60;99.90;;;;;;4957050;28;20534;-20
2023/10/27 00:35:09;;;;;;;3.67;1.40;;;13.60;99.90;;;;;;4958896;28;20034;-18
2023/10/27 00:37:36;;;;;;;2.25;1.17;;;13.60;99.90;;;;;;4978417;28;20034;-19
2023/10/27 00:40:03;;;;;;;3.37;1.40;;;13.50;99.90;;;;;;4976432;28;20070;-18
2023/10/27 00:42:29;;;;;;;3.25;1.58;;;13.30;99.90;;;;;;4989212;28;20372;-18
2023/10/27 00:44:54;;;;;;;3.55;1.50;;;13.60;99.90;;;;;;4939141;28;20816;-19
2023/10/27 00:47:20;;;;;;;1.67;1.20;;;13.60;99.90;;;;;;4966159;28;20114;-18
2023/10/27 00:49:47;;;;;;;3.10;1.40;;;13.60;99.90;;;;;;4957013;28;21135;-19
2023/10/27 00:52:14;;;;;;;2.28;1.20;;;13.60;99.90;;;;;;4962687;28;20247;-18
2023/10/27 00:54:43;;;;;;;2.90;1.38;;;13.60;99.90;;;;;;4972092;28;20038;-19
2023/10/27 00:57:09;;;;;;;2.80;1.40;;;13.60;99.90;;;;;;4977346;28;20382;-18
2023/10/27 00:59:36;;;;;;;3.22;1.50;;;13.60;99.90;;;;;;4970533;28;20034;-18
2023/10/27 01:02:02;;;;;;;2.30;1.20;;;13.60;99.90;;;;;;4935958;28;20132;-18
2023/10/27 01:04:28;;;;;;;3.20;1.30;;;13.60;99.90;;;;;;4971821;28;20038;-19
2023/10/27 01:06:55;;;;;;;2.88;1.35;;;13.60;99.90;;;;;;4959350;28;20411;-19
2023/10/27 01:09:21;;;;;;;2.40;1.27;;;13.60;99.90;;;;;;4961382;28;20688;-18
2023/10/27 01:11:48;;;;;;;2.20;1.20;;;13.60;99.90;;;;;;4965448;28;20041;-19
2023/10/27 01:14:14;;;;;;;3.08;1.42;;;13.60;99.90;;;;;;4970302;28;20038;-19
2023/10/27 01:16:39;;;;;;;2.88;1.33;;;13.60;99.90;;;;;;4941411;28;20488;-20
2023/10/27 01:19:05;;;;;;;2.43;1.10;;;13.30;99.90;;;;;;4944875;28;20466;-20
2023/10/27 01:21:31;;;;;;;2.63;1.17;;;13.60;99.90;;;;;;4949641;28;20042;-20
2023/10/27 01:23:56;;;;;;;2.57;1.20;;;13.60;99.90;;;;;;4959435;28;20260;-20
2023/10/27 01:26:22;;;;;;;3.45;1.20;;;13.60;99.90;;;;;;4962320;28;20066;-19
2023/10/27 01:28:48;;;;;;;3.30;1.40;;;13.60;99.90;;;;;;4977485;28;20085;-19
2023/10/27 01:31:14;;;;;;;3.72;1.10;;;13.60;99.90;;;;;;4964556;28;20641;-18
2023/10/27 01:33:39;;;;;;;1.77;1.10;;;13.60;99.90;;;;;;4947426;28;20026;-19
2023/10/27 01:36:06;;;;;;;2.80;1.10;;;13.60;99.90;;;;;;4957967;28;20045;-18
2023/10/27 01:38:32;;;;;;;2.85;1.27;;;13.60;99.90;;;;;;4970771;28;20062;-19
2023/10/27 01:40:57;;;;;;;4.20;1.53;;;13.60;99.90;;;;;;4958579;28;20114;-19
2023/10/27 01:43:23;;;;;;;3.28;1.40;;;13.60;99.90;;;;;;4953657;28;20035;-19
2023/10/27 01:45:49;;;;;;;2.67;1.10;;;13.60;99.90;;;;;;4965446;28;20484;-19
2023/10/27 01:48:14;;;;;;;3.13;1.23;;;13.60;99.90;;;;;;4973757;28;20472;-19
2023/10/27 01:50:41;;;;;;;3.83;1.43;;;13.60;99.90;;;;;;4942315;28;20058;-19
2023/10/27 01:53:07;;;;;;;2.30;1.30;;;13.60;99.90;;;;;;4976234;28;20243;-18
2023/10/27 01:55:33;;;;;;;3.15;1.23;;;13.60;99.90;;;;;;4960998;28;20038;-18
2023/10/27 01:57:58;;;;;;;2.87;1.13;;;13.60;99.90;;;;;;4972958;28;20046;-19
2023/10/27 02:00:24;;;;;;;3.42;1.10;;;13.60;99.90;;;;;;4968087;28;20563;-19
2023/10/27 02:02:50;;;;;;;2.77;1.00;;;13.60;99.90;;;;;;4963292;28;20054;-19
2023/10/27 02:05:15;;;;;;;2.80;1.20;;;13.60;99.90;;;;;;4943837;28;20287;-18
2023/10/27 02:07:41;;;;;;;3.65;1.20;;;13.60;99.90;;;;;;4945188;28;20038;-20
2023/10/27 02:10:07;;;;;;;3.20;1.17;;;13.60;99.90;;;;;;4942004;28;20193;-20
2023/10/27 02:12:33;;;;;;;1.92;1.20;;;13.60;99.90;;;;;;4970730;28;20228;-20
2023/10/27 02:14:58;;;;;;;3.63;1.40;;;13.60;99.90;;;;;;4961876;28;20085;-20
2023/10/27 02:17:25;;;;;;;4.00;1.40;;;13.60;99.90;;;;;;4961133;28;20254;-19
2023/10/27 02:19:50;;;;;;;2.13;1.20;;;13.60;99.90;;;;;;4949005;28;20026;-18
2023/10/27 02:22:19;;;;;;;2.70;1.17;;;13.60;99.90;;;;;;4960336;28;20027;-19
2023/10/27 02:24:45;;;;;;;1.40;1.00;;;13.60;99.90;;;;;;4977609;28;20041;-19
2023/10/27 02:27:11;;;;;;;2.10;1.20;;;13.60;99.90;;;;;;4970286;28;20391;-21
2023/10/27 02:29:37;;;;;;;1.95;1.10;;;13.60;99.90;;;;;;4959374;28;20029;-22
2023/10/27 02:32:03;;;;;;;2.35;1.30;;;13.60;99.90;;;;;;4963011;28;20391;-22
2023/10/27 02:34:29;;;;;;;1.47;0.90;;;13.60;99.90;;;;;;4948075;28;20511;-21
2023/10/27 02:36:55;;;;;;;1.98;1.20;;;13.60;99.90;;;;;;4975254;28;20058;-21
2023/10/27 02:39:20;;;;;;;2.83;1.27;;;13.60;99.90;;;;;;4960560;28;20355;-22
2023/10/27 02:41:46;;;;;;;2.20;1.10;;;13.60;99.90;;;;;;4971666;28;20594;-21
2023/10/27 02:44:12;;;;;;;2.13;0.93;;;13.60;99.90;;;;;;4945372;28;20038;-21
2023/10/27 02:46:38;;;;;;;2.63;0.87;;;13.60;99.90;;;;;;4964236;28;20029;-22
2023/10/27 02:49:04;;;;;;;2.33;1.30;;;13.60;99.90;;;;;;4972466;28;20030;-22
2023/10/27 02:51:31;;;;;;;2.88;1.50;;;13.60;99.90;;;;;;4931870;28;20038;-22
2023/10/27 02:53:57;;;;;;;1.70;1.10;;;13.70;99.90;;;;;;4964556;28;20384;-22
2023/10/27 02:56:23;;;;;;;1.90;1.20;;;13.60;99.90;;;;;;4960000;28;20022;-19
2023/10/27 02:58:49;;;;;;;1.73;1.00;;;13.70;99.90;;;;;;4973668;28;20050;-20
2023/10/27 03:01:15;;;;;;;3.15;1.30;;;13.60;99.90;;;;;;4959406;28;20697;-20
2023/10/27 03:03:42;;;;;;;2.20;1.10;;;13.60;99.90;;;;;;4967364;28;20043;-20
2023/10/27 03:06:07;;;;;;;1.83;1.07;;;13.70;99.90;;;;;;4961580;28;20066;-21
2023/10/27 03:08:34;;;;;;;2.35;1.27;;;13.60;99.90;;;;;;4960019;28;20586;-20
2023/10/27 03:11:00;;;;;;;1.75;1.10;;;13.60;99.90;;;;;;4959095;28;20146;-19
2023/10/27 03:13:30;;;;;;;3.00;1.38;;;13.60;99.90;;;;;;4965578;28;20593;-20
2023/10/27 03:15:58;;;;;;;2.28;1.20;;;13.60;99.90;;;;;;4959453;28;20077;-20
2023/10/27 03:18:24;;;;;;;2.13;1.20;;;13.60;99.90;;;;;;4964955;28;20053;-19
2023/10/27 03:21:01;;;;;;;1.92;1.27;;;13.60;99.90;;;;;;4964595;28;20031;-19
2023/10/27 03:23:27;;;;;;;3.50;1.30;;;13.60;99.90;;;;;;4947705;28;20316;-19
2023/10/27 03:25:53;;;;;;;2.30;1.17;;;16.00;99.90;;;;;;4973285;28;20042;-20
2023/10/27 03:28:20;;;;;;;1.95;1.10;;;13.60;99.90;;;;;;4930257;28;20631;-21
2023/10/27 03:30:50;;;;;;;2.13;1.10;;;13.60;99.90;;;;;;4963301;28;22675;-20
2023/10/27 03:33:17;;;;;;;1.70;1.10;;;13.60;99.90;;;;;;4966448;28;20278;-20
2023/10/27 03:35:44;;;;;;;2.25;1.23;;;13.60;99.90;;;;;;4960884;28;20049;-19
2023/10/27 03:38:10;;;;;;;2.42;1.10;;;13.60;99.90;;;;;;4952734;28;20392;-19
2023/10/27 03:40:37;;;;;;;2.03;1.17;;;13.60;99.90;;;;;;4970611;28;20724;-20
2023/10/27 03:43:03;;;;;;;2.90;1.57;;;13.70;99.90;;;;;;4953433;28;20040;-20
2023/10/27 03:45:29;;;;;;;1.95;1.20;;;13.60;99.90;;;;;;4967880;28;20042;-21
2023/10/27 03:47:55;;;;;;;1.80;1.10;;;13.60;99.90;;;;;;4977337;28;20524;-22
2023/10/27 03:50:21;;;;;;;2.20;1.27;;;13.70;99.90;;;;;;4964649;28;20041;-22
2023/10/27 03:52:46;;;;;;;1.65;1.00;;;13.60;99.90;;;;;;4979681;28;20206;-22
2023/10/27 03:55:12;;;;;;;1.20;0.90;;;13.70;99.90;;;;;;4952842;28;20030;-22
2023/10/27 03:57:40;;;;;;;1.33;0.90;;;13.70;99.90;;;;;;4965536;28;20781;-22
2023/10/27 04:00:07;;;;;;;2.72;1.15;;;13.70;99.90;;;;;;4975371;28;20029;-22
2023/10/27 04:02:36;;;;;;;1.67;1.02;;;13.60;99.90;;;;;;4961571;28;20037;-22
2023/10/27 04:05:04;;;;;;;2.10;1.10;;;13.60;99.90;;;;;;4948245;28;20038;-22
2023/10/27 04:07:29;;;;;;;2.03;1.13;;;13.60;99.90;;;;;;4951034;28;20129;-23
2023/10/27 04:09:55;;;;;;;1.80;1.00;;;13.60;99.90;;;;;;4951055;28;20035;-22
2023/10/27 04:12:21;;;;;;;1.47;1.00;;;13.60;99.90;;;;;;4974784;28;20125;-22
2023/10/27 04:14:48;;;;;;;2.30;1.27;;;13.60;99.90;;;;;;4965084;28;20035;-23
2023/10/27 04:17:14;;;;;;;2.40;1.20;;;13.60;99.90;;;;;;4972849;28;20035;-23
2023/10/27 04:19:43;;;;;;;1.77;1.00;;;13.60;99.90;;;;;;4957086;28;20212;-22
2023/10/27 04:22:09;;;;;;;2.30;1.20;;;13.70;99.90;;;;;;4963203;28;20026;-22
2023/10/27 04:24:34;;;;;;;1.40;1.00;;;13.70;99.90;;;;;;4970907;28;20035;-23
2023/10/27 04:27:00;;;;;;;2.53;1.17;;;13.70;99.90;;;;;;4954104;28;20030;-22
2023/10/27 04:29:26;;;;;;;2.08;1.30;;;13.60;99.90;;;;;;4964726;28;20523;-22
2023/10/27 04:31:51;;;;;;;2.50;1.30;;;13.70;99.90;;;;;;4969363;28;20057;-23
2023/10/27 04:34:18;;;;;;;2.42;1.30;;;13.60;99.90;;;;;;4986507;28;20420;-23
2023/10/27 04:36:44;;;;;;;3.15;1.60;;;13.70;99.90;;;;;;4962442;28;20050;-23
2023/10/27 04:39:10;;;;;;;3.70;1.67;;;13.60;99.90;;;;;;4951995;28;20034;-23
2023/10/27 04:41:37;;;;;;;2.65;1.55;;;13.70;99.90;;;;;;4945715;28;20630;-23
2023/10/27 04:44:05;;;;;;;4.68;1.80;;;13.60;99.90;;;;;;4955628;28;20073;-23
2023/10/27 04:46:31;;;;;;;3.60;1.55;;;13.70;99.90;;;;;;4958284;28;20458;-23
2023/10/27 04:49:00;;;;;;;3.40;1.60;;;13.60;99.90;;;;;;4970034;28;20211;-23
2023/10/27 04:51:26;;;;;;;4.30;1.90;;;13.60;99.90;;;;;;4965790;28;20039;-23
2023/10/27 04:53:52;;;;;;;3.58;1.92;;;13.60;99.90;;;;;;4973425;28;20631;-23
2023/10/27 04:56:19;;;;;;;4.80;2.00;;;13.60;99.90;;;;;;4951128;28;20093;-22
2023/10/27 04:58:44;;;;;;;3.67;1.73;;;13.60;99.90;;;;;;4989217;28;20053;-21
2023/10/27 05:01:11;;;;;;;3.22;1.70;;;13.60;99.90;;;;;;4942765;28;20264;-19
2023/10/27 05:03:37;;;;;;;5.00;1.92;;;13.30;99.90;;;;;;4972377;28;20510;-21
2023/10/27 05:06:10;;;;;;;3.60;1.57;;;13.60;99.90;;;;;;4947794;28;20121;-21
2023/10/27 05:08:36;;;;;;;4.22;1.60;;;13.30;99.90;;;;;;4962080;28;20031;-21
2023/10/27 05:11:03;;;;;;;4.70;1.77;;;13.60;99.90;;;;;;4984241;28;20061;-21
2023/10/27 05:13:29;;;;;;;4.47;2.22;;;13.60;99.90;;;;;;4953303;28;20428;-21
2023/10/27 05:15:55;;;;;;;4.05;1.42;;;13.60;99.90;;;;;;4975943;28;20667;-21
2023/10/27 05:18:21;;;;;;;4.03;1.40;;;13.60;99.90;;;;;;4965461;28;20037;-22
2023/10/27 05:20:48;;;;;;;3.38;1.58;;;13.50;99.90;;;;;;4948703;28;20039;-22
2023/10/27 05:23:14;;;;;;;2.80;1.50;;;13.50;99.90;;;;;;4974903;28;20046;-22
2023/10/27 05:25:40;;;;;;;3.63;1.55;;;13.60;99.90;;;;;;4971025;28;20061;-22
2023/10/27 05:28:08;;;;;;;2.90;1.40;;;13.50;99.90;;;;;;4946578;28;20034;-22
2023/10/27 05:30:37;;;;;;;3.53;1.60;;;13.50;99.90;;;;;;4955323;28;20034;-22
2023/10/27 05:33:04;;;;;;;2.40;1.40;;;13.50;99.90;;;;;;4953068;28;20030;-22
2023/10/27 05:35:29;;;;;;;3.20;1.40;;;13.50;99.90;;;;;;4954527;28;20022;-22
2023/10/27 05:37:55;;;;;;;2.30;1.30;;;13.50;99.90;;;;;;4956497;28;20769;-22
2023/10/27 05:40:22;;;;;;;2.65;1.40;;;13.50;99.90;;;;;;4966654;28;20494;-22
2023/10/27 05:42:48;;;;;;;2.92;1.40;;;13.50;99.90;;;;;;4975030;28;20365;-22
2023/10/27 05:45:14;;;;;;;3.20;1.60;;;13.50;99.90;;;;;;4948482;28;20188;-22
2023/10/27 05:47:40;;;;;;;2.58;1.73;;;13.50;99.90;;;;;;4952726;28;20019;-22
2023/10/27 05:50:07;;;;;;;3.78;2.05;;;13.60;99.90;;;;;;4971668;28;20041;-21
2023/10/27 05:52:33;;;;;;;4.10;1.50;;;13.60;99.90;;;;;;4965851;28;20134;-21
2023/10/27 05:54:59;;;;;;;2.95;1.42;;;13.60;99.90;;;;;;4960716;28;20038;-22
2023/10/27 05:57:25;;;;;;;3.83;1.50;;;13.60;99.90;;;;;;4969371;28;20067;-23
2023/10/27 05:59:51;;;;;;;3.43;1.53;;;13.60;99.90;;;;;;4944906;28;20563;-21
2023/10/27 06:02:16;;;;;;;3.25;1.63;;;13.60;99.90;;;;;;4940849;28;20244;-21
2023/10/27 06:04:42;;;;;;;4.23;1.63;;;13.60;99.90;;;;;;4958340;28;20034;-21
2023/10/27 06:07:08;;;;;;;2.85;1.50;;;13.60;99.90;;;;;;4965843;28;20034;-22
2023/10/27 06:09:35;;;;;;;2.22;1.30;;;13.60;99.90;;;;;;4957495;28;20035;-21
2023/10/27 06:12:01;;;;;;;3.27;1.60;;;13.60;99.90;;;;;;4963043;28;20037;-21
2023/10/27 06:14:27;;;;;;;2.90;1.60;;;13.50;99.90;;;;;;4945984;28;20265;-22
2023/10/27 06:16:53;;;;;;;4.13;1.35;;;13.60;99.90;;;;;;4931790;28;20520;-22
2023/10/27 06:19:24;;;;;;;2.63;1.50;;;13.60;99.90;;;;;;4956007;28;20023;-21
2023/10/27 06:21:50;;;;;;;2.67;1.50;;;13.60;99.90;;;;;;4973952;28;20046;-22
2023/10/27 06:24:16;;;;;;;3.53;1.95;;;13.60;99.90;;;;;;4969722;28;20031;-21
2023/10/27 06:26:42;;;;;;;2.92;1.60;;;13.60;99.90;;;;;;4982262;28;20030;-22
2023/10/27 06:29:08;;;;;;;2.47;1.63;;;13.60;99.90;;;;;;4979961;28;20543;-21
2023/10/27 06:31:34;;;;;;;3.92;1.60;;;13.60;99.90;;;;;;4942621;28;20023;-21
2023/10/27 06:34:00;;;;;;;3.00;1.63;;;14.20;99.90;;;;;;4934187;28;20038;-21
2023/10/27 06:36:28;;;;;;;3.90;2.08;;;13.60;99.90;;;;;;4964756;28;20215;-21
2023/10/27 06:38:53;;;;;;;3.85;2.08;;;13.60;99.90;;;;;;4975471;28;20030;-22
2023/10/27 06:41:19;;;;;;;3.27;1.70;;;13.60;99.90;;;;;;4976166;28;20174;-22
2023/10/27 06:43:45;;;;;;;5.63;2.38;;;13.60;99.90;;;;;;4976408;28;20073;-22
2023/10/27 06:46:11;;;;;;;3.50;2.03;;;13.60;99.90;;;;;;4953885;28;20030;-21
2023/10/27 06:48:37;;;;;;;3.90;1.80;;;13.60;99.90;;;;;;4961550;28;20026;-22
2023/10/27 06:51:03;;;;;;;3.38;1.92;;;13.60;99.90;;;;;;4961455;28;20078;-21
2023/10/27 06:53:29;;;;;;;4.57;1.90;;;13.60;99.90;;;;;;4975692;28;20253;-22
2023/10/27 06:55:55;;;;;;;3.73;2.03;;;13.60;99.90;;;;;;4948453;28;20023;-21
2023/10/27 06:58:20;;;;;;;3.53;2.00;;;13.60;99.90;;;;;;4971067;28;20164;-22
2023/10/27 07:00:46;;;;;;;3.07;1.53;;;13.70;99.90;;;;;;4951997;28;20034;-21
2023/10/27 07:03:12;;;;;;;3.80;1.98;;;13.60;99.90;;;;;;4931557;28;20035;-22
2023/10/27 07:05:37;;;;;;;3.37;1.97;;;13.70;99.90;;;;;;4966522;28;20026;-22
2023/10/27 07:08:05;;;;;;;4.05;1.70;;;13.60;99.90;;;;;;4962484;28;20031;-21
2023/10/27 07:10:31;;;;;;;3.17;1.77;;;13.70;99.90;;;;;;4978302;28;20034;-22
2023/10/27 07:12:57;;;;;;;4.32;1.70;;;13.70;99.90;;;;;;4976798;28;20049;-21
2023/10/27 07:15:22;;;;;;;3.90;1.90;;;13.70;99.90;;;;;;4955049;28;20027;-21
2023/10/27 07:17:48;;;;;;;3.17;1.70;;;13.70;99.90;;;;;;4968113;28;20034;-18
2023/10/27 07:20:14;;;;;;;3.83;1.70;;;13.70;99.90;;;;;;4960797;28;20038;-20
2023/10/27 07:22:40;;;;;;;4.25;1.73;;;13.70;99.90;;;;;;4979690;28;20306;-18
2023/10/27 07:25:06;;;;;;;5.10;2.40;;;13.70;99.90;;;;;;4977253;28;20026;-19
2023/10/27 07:27:33;;;;;;;3.45;1.70;;;13.70;99.90;;;;;;4960506;28;20677;-18
2023/10/27 07:29:59;;;;;;;2.95;1.70;;;13.70;99.90;;;;;;4977062;28;20026;-22
2023/10/27 07:32:25;;;;;;;2.87;1.63;;;13.70;99.90;;;;;;4967711;28;20058;-22
2023/10/27 07:34:50;;;;;;;3.20;1.77;;;13.80;99.90;;;;;;4949316;28;20449;-22
2023/10/27 07:37:20;;;;;;;4.97;1.90;;;13.80;99.90;;;;;;4955566;28;20035;-21
2023/10/27 07:39:46;;;;;;;3.47;1.40;;;13.80;99.90;;;;;;4975863;28;20802;-22
2023/10/27 07:42:13;;;;;;;3.42;1.73;;;13.90;99.90;;;;;;4974437;28;20084;-21
2023/10/27 07:44:39;;;;;;;3.60;1.73;;;13.90;99.90;;;;;;4947122;28;20023;-21
2023/10/27 07:47:05;;;;;;;3.15;1.60;;;13.90;99.90;;;;;;4963752;28;20026;-21
2023/10/27 07:49:31;;;;;;;2.97;1.77;;;13.90;99.90;;;;;;4946639;28;20568;-21
2023/10/27 07:51:57;;;;;;;2.73;1.47;;;14.00;99.90;;;;;;4961177;28;20387;-20
2023/10/27 07:54:23;;;;;;;2.38;1.20;;;14.00;99.90;;;;;;4965223;28;20428;-21
2023/10/27 07:56:49;;;;;;;2.50;1.53;;;14.10;99.90;;;;;;4960856;28;20063;-21
2023/10/27 07:59:14;;;;;;;3.42;1.50;;;14.10;99.90;;;;;;4958842;28;22594;-22
2023/10/27 08:01:43;;;;;;;2.85;1.65;;;13.90;99.90;;;;;;4972945;28;20058;-22
2023/10/27 08:04:08;;;;;;;2.60;1.53;;;14.20;99.90;;;;;;4940315;28;20039;-22
2023/10/27 08:06:34;;;;;;;3.38;1.50;;;14.20;99.90;;;;;;4975787;28;20108;-20
2023/10/27 08:09:00;;;;;;;2.87;1.50;;;14.30;99.90;;;;;;4964093;28;20035;-21
2023/10/27 08:11:25;;;;;;;2.90;1.42;;;14.30;99.90;;;;;;4947114;28;20141;-21
2023/10/27 08:13:51;;;;;;;2.57;1.40;;;14.30;99.90;;;;;;4968292;28;20187;-22
2023/10/27 08:16:17;;;;;;;2.83;1.40;;;14.40;99.90;;;;;;4947406;28;20050;-22
2023/10/27 08:18:42;;;;;;;2.87;1.47;;;14.40;99.90;;;;;;4968597;28;20029;-21
2023/10/27 08:21:08;;;;;;;3.30;1.60;;;14.70;99.90;;;;;;4944994;28;20030;-21
2023/10/27 08:23:34;;;;;;;4.03;1.67;;;14.30;99.90;;;;;;4957764;28;20039;-21
2023/10/27 08:26:00;;;;;;;2.45;1.30;;;14.30;99.90;;;;;;4963781;28;20026;-21
2023/10/27 08:28:27;;;;;;;2.87;1.67;;;14.40;99.90;;;;;;4967594;28;20267;-18
2023/10/27 08:30:53;;;;;;;2.37;1.57;;;14.40;99.90;;;;;;4962723;28;20332;-19
2023/10/27 08:33:19;;;;;;;3.28;1.55;;;14.40;99.90;;;;;;4943988;28;22965;-17
2023/10/27 08:35:44;;;;;;;3.45;1.55;;;14.40;99.90;;;;;;4950200;28;20431;-18
2023/10/27 08:38:10;;;;;;;2.90;1.20;;;14.40;99.90;;;;;;4966431;28;20614;-18
2023/10/27 08:40:36;;;;;;;2.70;1.20;;;14.40;99.90;;;;;;4962324;28;20126;-18
2023/10/27 08:43:03;;;;;;;2.00;1.30;;;14.40;99.90;;;;;;4957731;28;20026;-19
2023/10/27 08:45:31;;;;;;;2.63;1.20;;;14.40;99.90;;;;;;4959528;28;20034;-19
2023/10/27 08:48:00;;;;;;;3.17;1.35;;;14.50;99.90;;;;;;4978462;28;20468;-17
2023/10/27 08:50:27;;;;;;;1.90;1.17;;;14.50;99.90;;;;;;4953642;28;20132;-18
2023/10/27 08:52:53;;;;;;;4.80;1.80;;;14.60;99.90;;;;;;4945366;28;20392;-19
2023/10/27 08:55:20;;;;;;;3.40;1.70;;;14.60;99.90;;;;;;4971598;28;20101;-17
2023/10/27 08:57:46;;;;;;;3.17;1.80;;;14.60;99.90;;;;;;4987043;28;20063;-18
2023/10/27 09:00:12;;;;;;;4.13;1.70;;;14.70;99.90;;;;;;4953878;28;20784;-18
2023/10/27 09:02:38;;;;;;;4.90;1.80;;;14.70;99.90;;;;;;4961813;28;20436;-18
2023/10/27 09:05:06;;;;;;;3.53;1.60;;;14.80;99.90;;;;;;4978531;28;20038;-19
2023/10/27 09:07:33;;;;;;;3.63;2.40;;;14.90;99.90;;;;;;4945017;28;20034;-17
2023/10/27 09:10:07;;;;;;;4.70;2.15;;;14.90;99.90;;;;;;4982693;28;20037;-19
2023/10/27 09:12:36;;;;;;;5.97;2.35;;;15.00;99.90;;;;;;4966672;28;20074;-18
2023/10/27 09:15:06;;;;;;;4.00;1.85;;;15.00;99.90;;;;;;4958757;28;20589;-19
2023/10/27 09:17:58;;;;;;;3.75;2.25;;;15.10;99.90;;;;;;4961395;28;20077;-18
2023/10/27 09:20:25;;;;;;;3.23;1.60;;;15.10;99.90;;;;;;4978453;28;20271;-18
2023/10/27 09:23:04;;;;;;;2.88;1.80;;;15.20;99.90;;;;;;4949380;28;20147;-19
2023/10/27 09:25:34;;;;;;;3.95;2.20;;;15.20;99.90;;;;;;4960325;28;20073;-18
2023/10/27 09:28:02;;;;;;;2.83;1.85;;;15.30;99.90;;;;;;4974099;28;20070;-19
2023/10/27 09:30:35;;;;;;;3.55;1.90;;;15.30;99.90;;;;;;4960661;28;20015;-18
2023/10/27 09:33:13;;;;;;;4.90;2.03;;;15.30;99.90;;;;;;4942238;28;20039;-19
2023/10/27 09:35:40;;;;;;;4.28;2.15;;;15.30;99.90;;;;;;4961524;28;20058;-18
2023/10/27 09:38:06;;;;;;;4.80;2.40;;;15.20;99.90;;;;;;4947537;28;20031;-19
2023/10/27 09:40:35;;;;;;;4.47;2.15;;;15.20;99.90;;;;;;4962516;28;20018;-18
2023/10/27 09:43:02;;;;;;;4.15;2.17;;;15.20;99.90;;;;;;4961380;28;20048;-19
2023/10/27 09:45:31;;;;;;;4.70;2.10;;;15.20;99.90;;;;;;4958047;28;20038;-17
2023/10/27 09:48:02;;;;;;;4.20;2.10;;;15.20;99.90;;;;;;4975887;28;20034;-21
2023/10/27 09:50:29;;;;;;;3.88;1.95;;;15.10;99.90;;;;;;4963179;28;20431;-17
2023/10/27 09:53:00;;;;;;;3.80;2.05;;;15.20;99.90;;;;;;4970303;28;20030;-19
2023/10/27 09:55:33;;;;;;;4.05;1.92;;;15.10;99.90;;;;;;4943052;28;20260;-18
2023/10/27 09:58:01;;;;;;;3.67;1.90;;;15.10;99.90;;;;;;4952938;28;20046;-19
2023/10/27 10:00:29;;;;;;;4.05;2.50;;;15.10;99.90;;;;;;4972109;28;20034;-21
2023/10/27 10:02:56;;;;;;;4.15;2.30;;;15.10;99.90;;;;;;4947580;28;20526;-21
2023/10/27 10:05:23;;;;;;;4.07;2.20;;;15.00;99.90;;;;;;4968639;28;20396;-21
2023/10/27 10:07:52;;;;;;;4.45;2.33;;;15.00;99.90;;;;;;4949811;28;20488;-21
2023/10/27 10:10:29;;;;;;;6.27;2.47;;;15.00;99.90;;;;;;4938613;28;20100;-21
2023/10/27 10:13:17;;;;;;;3.78;1.67;;;14.90;99.90;;;;;;4969695;28;20030;-21
2023/10/27 10:15:45;;;;;;;2.95;1.80;;;14.90;99.90;;;;;;4960525;28;20030;-21
2023/10/27 10:18:20;;;;;;;5.07;2.00;;;14.90;99.90;;;;;;4950355;28;20034;-21
2023/10/27 10:20:48;;;;;;;2.70;1.73;;;14.80;99.90;;;;;;4973738;28;20081;-21
2023/10/27 10:23:14;;;;;;;3.00;1.53;;;14.80;99.90;;;;;;4977231;28;20055;-21
2023/10/27 10:25:54;;;;;;;4.00;1.67;;;14.80;99.90;;;;;;4942126;28;20474;-21
2023/10/27 10:28:20;;;;;;;3.38;1.88;;;14.80;99.90;;;;;;4967392;28;20225;-21
2023/10/27 10:30:47;;;;;;;4.30;2.17;;;14.80;99.90;;;;;;4954987;28;20030;-21
2023/10/27 10:33:29;;;;;;;3.90;1.65;;;14.80;99.90;;;;;;4949179;28;20129;-21
2023/10/27 10:36:18;;;;;;;3.45;1.67;;;14.80;99.90;;;;;;4971697;28;20034;-21
2023/10/27 10:38:50;;;;;;;2.88;1.60;;;14.80;99.90;;;;;;4976814;28;20045;-21
2023/10/27 10:41:18;;;;;;;4.30;2.00;;;14.90;99.90;;;;;;4937367;28;20038;-21
2023/10/27 10:43:44;;;;;;;3.43;1.47;;;14.90;99.90;;;;;;4970948;28;20117;-21
2023/10/27 10:46:12;;;;;;;4.25;1.88;;;15.00;99.90;;;;;;4951196;28;20439;-21
2023/10/27 10:48:46;;;;;;;3.80;1.60;;;15.00;99.90;;;;;;4954154;28;20027;-21
2023/10/27 10:54:17;;;;;;;3.65;1.48;;;15.20;99.90;;;;;;4863969;29;22040;-21
2023/10/27 10:56:43;;;;;;;3.90;1.70;;;15.30;99.90;;;;;;4900940;29;20028;-21
2023/10/27 10:59:19;;;;;;;3.40;1.85;;;15.30;99.90;;;;;;4901142;28;20042;-21
2023/10/27 11:01:45;;;;;;;2.37;1.50;;;15.40;99.90;;;;;;4954404;28;20516;-21
2023/10/27 11:04:11;;;;;;;3.08;1.40;;;15.40;99.90;;;;;;4954306;28;20027;-21
2023/10/27 11:06:37;;;;;;;3.72;1.80;;;15.50;99.90;;;;;;4966393;28;20331;-21
2023/10/27 11:09:04;;;;;;;4.28;1.50;;;15.50;99.90;;;;;;4965499;28;20385;-18
2023/10/27 11:11:33;;;;;;;3.43;1.40;;;15.50;99.90;;;;;;4934466;28;20058;-19
2023/10/27 11:13:59;;;;;;;2.92;1.50;;;15.50;99.90;;;;;;4970754;28;20072;-18
2023/10/27 11:16:26;;;;;;;2.60;1.35;;;15.40;99.90;;;;;;4958260;28;20450;-19
2023/10/27 11:18:54;;;;;;;2.43;1.40;;;15.40;99.90;;;;;;4956917;28;20123;-21
2023/10/27 11:21:22;;;;;;;5.60;2.25;;;15.40;99.90;;;;;;4944622;28;20654;-21
2023/10/27 11:23:49;;;;;;;3.05;1.50;;;15.40;99.90;;;;;;4963621;28;20506;-21
2023/10/27 11:26:17;;;;;;;4.32;1.45;;;15.40;99.90;;;;;;4944462;28;20511;-21
2023/10/27 11:28:44;;;;;;;3.97;1.38;;;15.40;99.90;;;;;;4957883;28;20959;-21
2023/10/27 11:31:26;;;;;;;4.40;1.83;;;15.40;99.90;;;;;;4964649;28;20049;-21
2023/10/27 11:34:06;;;;;;;3.85;1.40;;;15.30;99.90;;;;;;4944229;28;20026;-21
2023/10/27 11:36:32;;;;;;;2.28;1.20;;;15.40;99.90;;;;;;4953853;28;20325;-21
2023/10/27 11:39:15;;;;;;;3.08;1.30;;;15.40;99.90;;;;;;4973635;28;20440;-21
2023/10/27 11:41:50;;;;;;;2.53;1.20;;;15.40;99.90;;;;;;4962921;28;20038;-21
2023/10/27 11:44:16;;;;;;;2.83;1.13;;;15.40;99.90;;;;;;4956905;28;20350;-21
2023/10/27 11:46:50;;;;;;;2.35;1.02;;;15.40;99.90;;;;;;4966369;28;20027;-21
2023/10/27 11:49:17;;;;;;;3.47;1.83;;;15.40;99.90;;;;;;4954785;28;20212;-21
2023/10/27 11:51:43;;;;;;;2.60;1.17;;;15.60;99.90;;;;;;4947467;28;20096;-21
2023/10/27 11:54:09;;;;;;;3.40;1.20;;;15.50;99.90;;;;;;4976205;28;20566;-21
2023/10/27 11:56:34;;;;;;;2.03;1.20;;;15.50;99.90;;;;;;4941237;28;20018;-21
2023/10/27 11:59:00;;;;;;;2.00;1.20;;;15.60;99.90;;;;;;4957162;28;20065;-21
2023/10/27 12:01:26;;;;;;;2.97;1.20;;;15.60;99.90;;;;;;4973431;28;20026;-21
2023/10/27 12:03:52;;;;;;;2.40;0.90;;;15.60;99.90;;;;;;4964253;28;20240;-21
2023/10/27 12:06:17;;;;;;;2.33;1.23;;;15.70;99.90;;;;;;4948599;28;20405;-21
2023/10/27 12:08:43;;;;;;;1.43;0.90;;;15.70;99.90;;;;;;4965428;28;20053;-21
2023/10/27 12:11:09;;;;;;;1.63;1.10;;;15.70;99.90;;;;;;4959632;28;20026;-22
2023/10/27 12:13:34;;;;;;;2.03;1.13;;;15.80;99.90;;;;;;4939006;28;20170;-21
2023/10/27 12:16:00;;;;;;;2.50;1.00;;;15.80;99.90;;;;;;4979557;28;20034;-22
2023/10/27 12:18:27;;;;;;;4.13;1.63;;;15.90;99.90;;;;;;4955277;28;20031;-21
2023/10/27 12:20:52;;;;;;;3.50;1.10;;;15.90;99.90;;;;;;4974542;28;20034;-19
2023/10/27 12:23:18;;;;;;;2.03;1.10;;;16.00;99.90;;;;;;4951182;28;20049;-18
2023/10/27 12:25:44;;;;;;;2.65;1.27;;;16.00;99.90;;;;;;4959300;28;20160;-18
2023/10/27 12:28:10;;;;;;;2.47;1.20;;;16.10;99.90;;;;;;4929010;28;20034;-18
2023/10/27 12:30:36;;;;;;;2.63;1.08;;;16.20;99.90;;;;;;4950784;28;20125;-19
2023/10/27 12:33:03;;;;;;;2.75;1.10;;;16.30;99.90;;;;;;4960215;28;20054;-18
2023/10/27 12:35:30;;;;;;;2.22;1.10;;;16.40;99.90;;;;;;4970573;28;20378;-19
2023/10/27 12:37:56;;;;;;;2.55;1.20;;;16.50;99.90;;;;;;4961888;28;20803;-18
2023/10/27 12:40:25;;;;;;;2.93;1.10;;;16.60;99.90;;;;;;4974967;28;20031;-21
2023/10/27 12:42:52;;;;;;;4.90;1.27;;;16.80;99.90;;;;;;4952037;28;20113;-21
2023/10/27 12:45:18;;;;;;;2.17;1.15;;;16.90;99.90;;;;;;4957459;28;20854;-21
2023/10/27 12:47:45;;;;;;;1.65;0.90;;;17.00;99.90;;;;;;4948609;28;20030;-21
2023/10/27 12:50:11;;;;;;;2.70;1.00;;;17.20;99.90;;;;;;4961750;28;20601;-21